Time;durP1;ratioP1;P1;durP2;ratioP2;P2;SDS_P1;SDS_P2;PMS_P1;PMS_P2;Temp;Humidity;BMP_temperature;BMP_pressure;BME280_temperature;BME280_humidity;BME280_pressure;Samples;Min_cycle;Max_cycle;Signal;HPM_P1;HPM_P2
2023/12/15 00:00:42;;;;;;;25.70;13.73;;;3.80;99.90;;;;;;5073238;28;20221;-82
2023/12/15 00:03:09;;;;;;;25.87;13.30;;;3.80;99.90;;;;;;5066473;28;20203;-83
2023/12/15 00:05:37;;;;;;;24.57;13.33;;;3.80;99.90;;;;;;5063165;28;20589;-82
2023/12/15 00:08:04;;;;;;;24.90;13.57;;;3.80;99.90;;;;;;5066013;28;20206;-81
2023/12/15 00:10:32;;;;;;;22.33;11.73;;;3.70;99.90;;;;;;5071827;28;20232;-82
2023/12/15 00:12:58;;;;;;;29.87;15.30;;;3.80;99.90;;;;;;5061251;28;20218;-81
2023/12/15 00:15:25;;;;;;;24.37;13.33;;;3.70;99.90;;;;;;5065798;28;20209;-81
2023/12/15 00:17:52;;;;;;;24.07;13.30;;;3.80;99.90;;;;;;5069370;28;20202;-83
2023/12/15 00:20:19;;;;;;;25.40;12.83;;;3.80;99.90;;;;;;5069916;28;20290;-82
2023/12/15 00:22:47;;;;;;;23.77;12.30;;;3.70;99.90;;;;;;5070594;28;20209;-82
2023/12/15 00:25:14;;;;;;;27.87;14.07;;;3.70;99.90;;;;;;5067807;28;20203;-82
2023/12/15 00:27:41;;;;;;;24.20;13.00;;;3.80;99.90;;;;;;5065111;28;20203;-82
2023/12/15 00:30:08;;;;;;;24.73;12.83;;;3.80;99.90;;;;;;5068862;28;20218;-82
2023/12/15 00:32:35;;;;;;;25.77;13.83;;;3.80;99.90;;;;;;5072839;28;20205;-83
2023/12/15 00:35:02;;;;;;;25.37;13.57;;;3.70;99.90;;;;;;5072887;28;20202;-82
2023/12/15 00:37:29;;;;;;;23.57;13.13;;;3.60;99.90;;;;;;5072305;28;20248;-81
2023/12/15 00:39:57;;;;;;;24.17;11.87;;;3.60;99.90;;;;;;5071539;28;20222;-82
2023/12/15 00:42:24;;;;;;;25.20;12.87;;;3.40;99.90;;;;;;5073669;28;20198;-82
2023/12/15 00:44:51;;;;;;;25.20;13.10;;;3.40;99.90;;;;;;5061918;28;20218;-82
2023/12/15 00:47:18;;;;;;;24.53;12.47;;;3.20;99.90;;;;;;5066804;28;20214;-82
2023/12/15 00:49:44;;;;;;;25.87;12.93;;;3.20;99.90;;;;;;5057882;28;20221;-84
2023/12/15 00:52:11;;;;;;;27.33;13.70;;;2.90;99.90;;;;;;5064825;28;20675;-83
2023/12/15 00:54:38;;;;;;;22.43;12.27;;;2.90;99.90;;;;;;5063414;28;20210;-80
2023/12/15 00:57:06;;;;;;;24.93;13.63;;;2.80;99.90;;;;;;5069403;28;20195;-81
2023/12/15 00:59:33;;;;;;;27.90;13.87;;;2.80;99.90;;;;;;5066591;28;20268;-81
2023/12/15 01:02:00;;;;;;;24.70;13.47;;;2.70;99.90;;;;;;5063911;28;20206;-81
2023/12/15 01:04:27;;;;;;;26.40;13.60;;;2.60;99.90;;;;;;5065826;28;20211;-81
2023/12/15 01:06:54;;;;;;;27.70;13.93;;;2.50;99.90;;;;;;5066750;28;20203;-82
2023/12/15 01:09:21;;;;;;;24.87;12.93;;;2.50;99.90;;;;;;5065563;28;20291;-81
2023/12/15 01:11:48;;;;;;;27.90;13.23;;;2.40;99.90;;;;;;5059867;28;20206;-82
2023/12/15 01:14:17;;;;;;;30.20;14.53;;;2.30;99.90;;;;;;5063007;28;20213;-84
2023/12/15 01:16:46;;;;;;;26.43;13.57;;;2.40;99.90;;;;;;5069534;28;20198;-83
2023/12/15 01:19:12;;;;;;;29.30;14.60;;;2.30;99.90;;;;;;5069117;28;20628;-83
2023/12/15 01:21:40;;;;;;;30.40;14.70;;;2.20;99.90;;;;;;5073068;28;20560;-82
2023/12/15 01:24:07;;;;;;;29.80;14.77;;;2.20;99.90;;;;;;5069050;28;20205;-83
2023/12/15 01:26:33;;;;;;;30.60;14.97;;;2.30;99.90;;;;;;5068687;28;20206;-83
2023/12/15 01:29:00;;;;;;;28.47;14.40;;;2.30;99.90;;;;;;5071602;28;20289;-84
2023/12/15 01:31:28;;;;;;;30.47;15.50;;;2.40;99.90;;;;;;5069141;28;20218;-83
2023/12/15 01:33:55;;;;;;;27.87;14.43;;;2.40;99.90;;;;;;5072349;28;20225;-83
2023/12/15 01:36:22;;;;;;;32.67;14.60;;;2.40;99.90;;;;;;5072064;28;20210;-84
2023/12/15 01:38:49;;;;;;;30.80;14.80;;;2.50;99.90;;;;;;5069146;28;20210;-84
2023/12/15 01:41:16;;;;;;;29.23;14.97;;;2.50;99.90;;;;;;5074613;28;20623;-83
2023/12/15 01:43:42;;;;;;;31.67;15.63;;;2.50;99.90;;;;;;5074462;28;20202;-84
2023/12/15 01:46:09;;;;;;;32.77;15.27;;;2.50;99.90;;;;;;5072398;28;20202;-84
2023/12/15 01:48:38;;;;;;;29.60;14.90;;;2.50;99.90;;;;;;5070753;28;20244;-83
2023/12/15 01:51:05;;;;;;;30.83;14.67;;;2.60;99.90;;;;;;5063628;28;20240;-82
2023/12/15 01:53:32;;;;;;;31.17;15.60;;;2.60;99.90;;;;;;5072651;28;20249;-82
2023/12/15 01:55:59;;;;;;;32.80;15.73;;;2.60;99.90;;;;;;5063148;28;20252;-83
2023/12/15 01:58:26;;;;;;;29.97;15.10;;;2.60;99.90;;;;;;5066612;28;20632;-82
2023/12/15 02:00:52;;;;;;;28.57;13.90;;;2.60;99.90;;;;;;5070119;28;20309;-83
2023/12/15 02:03:19;;;;;;;31.43;15.20;;;2.70;99.90;;;;;;5073060;28;20216;-83
2023/12/15 02:05:47;;;;;;;29.20;14.37;;;2.70;99.90;;;;;;5077881;28;20205;-83
2023/12/15 02:08:14;;;;;;;34.13;15.57;;;2.80;99.90;;;;;;5069887;28;20208;-83
2023/12/15 02:10:41;;;;;;;31.40;14.83;;;2.80;99.90;;;;;;5070963;28;20219;-83
2023/12/15 02:13:08;;;;;;;32.97;15.23;;;2.90;99.90;;;;;;5070013;28;20269;-82
2023/12/15 02:15:35;;;;;;;31.73;15.13;;;2.90;99.90;;;;;;5074810;28;20211;-83
2023/12/15 02:18:02;;;;;;;31.67;15.40;;;3.00;99.90;;;;;;5067193;28;20210;-83
2023/12/15 02:20:29;;;;;;;34.40;17.13;;;3.00;99.90;;;;;;5072203;28;20840;-83
2023/12/15 02:22:57;;;;;;;37.17;17.27;;;3.10;99.90;;;;;;5076246;28;20572;-83
2023/12/15 02:25:24;;;;;;;34.50;15.77;;;3.10;99.90;;;;;;5075437;28;20214;-82
2023/12/15 02:27:51;;;;;;;32.43;15.77;;;3.10;99.90;;;;;;5075447;28;20274;-83
2023/12/15 02:30:18;;;;;;;33.37;16.03;;;3.20;99.90;;;;;;5071862;28;20603;-83
2023/12/15 02:32:44;;;;;;;33.17;16.30;;;3.30;99.90;;;;;;5077799;28;20216;-83
2023/12/15 02:35:14;;;;;;;33.43;15.23;;;3.40;99.90;;;;;;5070965;28;20198;-84
2023/12/15 02:37:40;;;;;;;35.10;15.57;;;3.30;99.90;;;;;;5071883;28;20256;-82
2023/12/15 02:40:09;;;;;;;33.17;14.87;;;3.60;99.90;;;;;;5071238;28;20854;-84
2023/12/15 02:42:36;;;;;;;31.33;14.10;;;3.40;99.90;;;;;;5070710;28;20205;-84
2023/12/15 02:45:04;;;;;;;33.73;16.07;;;3.70;99.90;;;;;;5076471;28;20194;-84
2023/12/15 02:47:31;;;;;;;33.87;16.20;;;3.50;99.90;;;;;;5076963;28;20688;-84
2023/12/15 02:49:57;;;;;;;34.77;17.50;;;3.60;99.90;;;;;;5077164;28;20313;-83
2023/12/15 02:52:24;;;;;;;31.80;15.40;;;3.90;99.90;;;;;;5076756;28;20202;-82
2023/12/15 02:54:51;;;;;;;32.00;15.53;;;3.70;99.90;;;;;;5071043;28;20198;-83
2023/12/15 02:57:19;;;;;;;33.40;15.17;;;3.70;99.90;;;;;;5073268;28;20270;-82
2023/12/15 02:59:46;;;;;;;31.30;15.17;;;3.80;99.90;;;;;;5072801;28;21336;-82
2023/12/15 03:02:13;;;;;;;33.00;15.40;;;3.80;99.90;;;;;;5062572;28;20684;-81
2023/12/15 03:04:40;;;;;;;33.73;15.60;;;3.80;99.90;;;;;;5066364;28;20273;-83
2023/12/15 03:07:06;;;;;;;32.63;14.40;;;3.90;99.90;;;;;;5069593;28;20285;-83
2023/12/15 03:09:33;;;;;;;31.17;14.30;;;3.90;99.90;;;;;;5069220;28;20202;-82
2023/12/15 03:12:00;;;;;;;31.67;14.03;;;4.10;99.90;;;;;;5066895;28;20869;-83
2023/12/15 03:14:28;;;;;;;33.50;15.37;;;4.00;99.90;;;;;;5068975;28;20213;-83
2023/12/15 03:16:55;;;;;;;32.27;15.73;;;4.20;99.90;;;;;;5070375;28;20198;-83
2023/12/15 03:19:22;;;;;;;28.50;13.23;;;4.20;99.90;;;;;;5068988;28;20203;-82
2023/12/15 03:21:47;;;;;;;34.70;14.70;;;4.30;99.90;;;;;;5069828;28;20230;-83
2023/12/15 03:24:14;;;;;;;30.80;14.37;;;4.10;99.90;;;;;;5069520;28;20633;-82
2023/12/15 03:26:41;;;;;;;29.73;14.63;;;4.10;99.90;;;;;;5072068;28;20282;-83
2023/12/15 03:29:08;;;;;;;29.87;13.50;;;4.10;99.90;;;;;;5068693;28;20195;-82
2023/12/15 03:31:37;;;;;;;30.70;13.77;;;4.10;99.90;;;;;;5078388;28;20223;-82
2023/12/15 03:34:04;;;;;;;30.33;14.17;;;4.30;99.90;;;;;;5076260;28;20195;-82
2023/12/15 03:36:35;;;;;;;27.90;13.27;;;4.10;99.90;;;;;;5075635;28;20801;-82
2023/12/15 03:39:03;;;;;;;32.27;14.53;;;4.20;99.90;;;;;;5073776;28;20205;-82
2023/12/15 03:41:29;;;;;;;32.03;14.83;;;4.10;99.90;;;;;;5070608;28;20702;-82
2023/12/15 03:43:56;;;;;;;28.57;13.80;;;4.20;99.90;;;;;;5072501;28;20582;-82
2023/12/15 03:46:23;;;;;;;31.93;14.23;;;4.10;99.90;;;;;;5073063;28;20207;-82
2023/12/15 03:48:51;;;;;;;29.93;14.60;;;4.20;99.90;;;;;;5072774;28;20198;-82
2023/12/15 03:51:18;;;;;;;31.17;14.17;;;4.10;99.90;;;;;;5071845;28;20700;-83
2023/12/15 03:53:45;;;;;;;31.83;14.50;;;4.10;99.90;;;;;;5070341;28;20206;-83
2023/12/15 03:56:11;;;;;;;33.27;14.37;;;4.40;99.90;;;;;;5075380;28;20262;-83
2023/12/15 03:58:38;;;;;;;31.00;14.17;;;4.20;99.90;;;;;;5073781;28;20202;-83
2023/12/15 04:01:05;;;;;;;29.23;14.17;;;4.20;99.90;;;;;;5076314;28;20230;-82
2023/12/15 04:03:32;;;;;;;33.07;14.80;;;4.20;99.90;;;;;;5067714;28;20229;-82
2023/12/15 04:06:01;;;;;;;33.13;15.33;;;4.20;99.90;;;;;;5070128;28;20198;-83
2023/12/15 04:08:28;;;;;;;29.70;13.07;;;4.30;99.90;;;;;;5072592;28;20207;-83
2023/12/15 04:10:55;;;;;;;33.63;15.73;;;4.30;99.90;;;;;;5069484;28;20667;-83
2023/12/15 04:13:22;;;;;;;31.63;13.80;;;4.30;99.90;;;;;;5068589;28;20204;-83
2023/12/15 04:15:48;;;;;;;34.47;15.27;;;4.30;99.90;;;;;;5064904;28;20588;-82
2023/12/15 04:18:16;;;;;;;28.80;14.03;;;4.30;99.90;;;;;;5068950;28;20202;-83
2023/12/15 04:20:43;;;;;;;28.40;12.47;;;4.30;99.90;;;;;;5071008;28;20236;-82
2023/12/15 04:23:11;;;;;;;33.07;14.73;;;4.30;99.90;;;;;;5072030;28;21043;-81
2023/12/15 04:25:38;;;;;;;35.80;14.63;;;4.80;99.90;;;;;;5072593;28;20225;-82
2023/12/15 04:28:05;;;;;;;33.17;13.80;;;4.30;99.90;;;;;;5072504;28;20198;-82
2023/12/15 04:30:31;;;;;;;30.43;14.17;;;4.30;99.90;;;;;;5072254;28;20235;-82
2023/12/15 04:32:58;;;;;;;30.60;13.87;;;4.30;99.90;;;;;;5067030;28;20207;-82
2023/12/15 04:35:25;;;;;;;30.70;13.70;;;4.30;99.90;;;;;;5067213;28;20289;-81
2023/12/15 04:37:52;;;;;;;34.63;14.77;;;4.30;99.90;;;;;;5072882;28;20205;-83
2023/12/15 04:40:21;;;;;;;35.83;16.17;;;4.20;99.90;;;;;;5076448;28;20238;-82
2023/12/15 04:42:47;;;;;;;32.53;14.80;;;4.20;99.90;;;;;;5071083;28;20199;-83
2023/12/15 04:45:14;;;;;;;33.93;15.33;;;4.20;99.90;;;;;;5078766;28;20594;-82
2023/12/15 04:47:41;;;;;;;33.93;15.37;;;4.40;99.90;;;;;;5072569;28;20211;-82
2023/12/15 04:50:09;;;;;;;38.17;16.93;;;4.30;99.90;;;;;;5074894;28;20225;-82
2023/12/15 04:52:36;;;;;;;33.17;15.93;;;4.30;99.90;;;;;;5068316;28;20210;-82
2023/12/15 04:55:02;;;;;;;36.47;16.70;;;4.30;99.90;;;;;;5073213;28;20204;-82
2023/12/15 04:57:31;;;;;;;37.30;17.37;;;4.30;99.90;;;;;;5074354;28;20206;-81
2023/12/15 04:59:57;;;;;;;34.13;16.47;;;4.30;99.90;;;;;;5073785;28;20262;-82
2023/12/15 05:02:24;;;;;;;38.23;16.63;;;4.70;99.90;;;;;;5076275;28;20641;-81
2023/12/15 05:04:51;;;;;;;39.23;17.83;;;4.30;99.90;;;;;;5071448;28;20206;-81
2023/12/15 05:07:18;;;;;;;41.77;19.03;;;4.30;99.90;;;;;;5073773;28;20543;-82
2023/12/15 05:09:47;;;;;;;37.23;17.37;;;4.30;99.90;;;;;;5066116;28;20235;-82
2023/12/15 05:12:14;;;;;;;41.23;17.80;;;4.30;99.90;;;;;;5073044;28;20195;-81
2023/12/15 05:14:42;;;;;;;35.90;16.43;;;4.30;99.90;;;;;;5069650;28;20206;-81
2023/12/15 05:17:09;;;;;;;36.50;16.90;;;4.40;99.90;;;;;;5062506;28;20297;-81
2023/12/15 05:19:36;;;;;;;36.53;17.67;;;4.30;99.90;;;;;;5068606;28;20248;-82
2023/12/15 05:22:03;;;;;;;37.70;19.50;;;4.40;99.90;;;;;;5068907;28;20221;-83
2023/12/15 05:24:31;;;;;;;34.73;17.17;;;4.40;99.90;;;;;;5072175;28;20765;-81
2023/12/15 05:26:58;;;;;;;35.33;17.43;;;4.40;99.90;;;;;;5070545;28;20202;-81
2023/12/15 05:29:25;;;;;;;37.70;17.17;;;4.40;99.90;;;;;;5070680;28;20203;-82
2023/12/15 05:31:53;;;;;;;37.50;17.10;;;4.50;99.90;;;;;;5073097;28;20218;-82
2023/12/15 05:34:20;;;;;;;38.20;17.00;;;4.50;99.90;;;;;;5067563;28;20203;-82
2023/12/15 05:36:47;;;;;;;37.40;16.97;;;4.50;99.90;;;;;;5073682;28;20201;-83
2023/12/15 05:39:15;;;;;;;40.73;17.57;;;4.50;99.90;;;;;;5074573;28;20194;-82
2023/12/15 05:41:42;;;;;;;41.20;17.07;;;4.80;99.90;;;;;;5072143;28;20728;-84
2023/12/15 05:44:09;;;;;;;37.83;17.77;;;4.60;99.90;;;;;;5072350;28;20285;-81
2023/12/15 05:46:41;;;;;;;37.23;17.17;;;4.60;99.90;;;;;;5070883;28;20221;-83
2023/12/15 05:49:10;;;;;;;37.97;17.70;;;4.70;99.90;;;;;;5076583;28;20285;-82
2023/12/15 05:51:37;;;;;;;34.63;16.53;;;4.70;99.90;;;;;;5071833;28;20263;-82
2023/12/15 05:54:04;;;;;;;34.20;16.70;;;4.70;99.90;;;;;;5076936;28;20198;-82
2023/12/15 05:56:31;;;;;;;36.00;16.57;;;4.80;99.90;;;;;;5072669;28;20237;-82
2023/12/15 05:58:57;;;;;;;38.00;18.27;;;4.80;99.90;;;;;;5071417;28;20229;-82
2023/12/15 06:01:24;;;;;;;35.60;17.23;;;4.80;99.90;;;;;;5072645;28;20703;-82
2023/12/15 06:03:52;;;;;;;37.67;17.90;;;4.80;99.90;;;;;;5069585;28;20576;-83
2023/12/15 06:06:20;;;;;;;36.63;17.13;;;4.80;99.90;;;;;;5073398;28;20202;-83
2023/12/15 06:08:47;;;;;;;39.30;17.97;;;4.90;99.90;;;;;;5071582;28;20202;-82
2023/12/15 06:11:14;;;;;;;39.13;18.40;;;4.90;99.90;;;;;;5076549;28;20222;-83
2023/12/15 06:13:41;;;;;;;37.43;18.30;;;4.90;99.90;;;;;;5072750;28;20214;-82
2023/12/15 06:16:09;;;;;;;37.87;17.37;;;4.90;99.90;;;;;;5069694;28;20673;-83
2023/12/15 06:18:36;;;;;;;36.80;18.37;;;4.90;99.90;;;;;;5074627;28;20565;-82
2023/12/15 06:21:03;;;;;;;35.83;17.27;;;5.00;99.90;;;;;;5070557;28;20228;-83
2023/12/15 06:23:31;;;;;;;37.93;19.03;;;5.00;99.90;;;;;;5074210;28;20213;-82
2023/12/15 06:25:57;;;;;;;39.50;17.93;;;5.30;99.90;;;;;;5076845;28;20676;-84
2023/12/15 06:28:24;;;;;;;34.87;16.17;;;5.00;99.90;;;;;;5073139;28;20202;-82
2023/12/15 06:30:51;;;;;;;37.33;17.67;;;5.00;99.90;;;;;;5072220;28;20608;-81
2023/12/15 06:33:19;;;;;;;37.83;17.80;;;5.00;99.90;;;;;;5077855;28;20238;-83
2023/12/15 06:35:46;;;;;;;39.47;18.50;;;5.00;99.90;;;;;;5075390;28;20199;-82
2023/12/15 06:38:13;;;;;;;38.03;17.90;;;5.00;99.90;;;;;;5075614;28;20724;-82
2023/12/15 06:40:42;;;;;;;39.57;17.70;;;5.00;99.90;;;;;;5074477;28;20257;-83
2023/12/15 06:43:09;;;;;;;38.93;17.53;;;5.00;99.90;;;;;;5070606;28;20214;-81
2023/12/15 06:45:36;;;;;;;39.03;18.27;;;5.00;99.90;;;;;;5072507;28;20209;-81
2023/12/15 06:48:03;;;;;;;35.43;16.57;;;5.10;99.90;;;;;;5073851;28;20229;-82
2023/12/15 06:50:30;;;;;;;34.40;16.67;;;5.10;99.90;;;;;;5069022;28;20229;-82
2023/12/15 06:52:57;;;;;;;33.00;17.27;;;5.00;99.90;;;;;;5075786;28;20226;-81
2023/12/15 06:55:23;;;;;;;32.27;16.17;;;5.00;99.90;;;;;;5077144;28;20266;-81
2023/12/15 06:57:53;;;;;;;36.63;16.40;;;5.10;99.90;;;;;;5070891;28;20252;-81
2023/12/15 07:00:20;;;;;;;31.63;15.73;;;5.10;99.90;;;;;;5074508;28;20222;-82
2023/12/15 07:02:47;;;;;;;36.23;17.83;;;5.10;99.90;;;;;;5071384;28;20210;-82
2023/12/15 07:05:14;;;;;;;32.17;16.30;;;5.10;99.90;;;;;;5073463;28;20209;-82
2023/12/15 07:07:41;;;;;;;31.67;15.30;;;5.00;99.90;;;;;;5076027;28;20302;-82
2023/12/15 07:10:08;;;;;;;28.73;15.57;;;5.00;99.90;;;;;;5075027;28;20231;-82
2023/12/15 07:12:35;;;;;;;31.30;14.67;;;5.00;99.90;;;;;;5079961;28;20289;-82
2023/12/15 07:15:03;;;;;;;29.93;15.53;;;5.00;99.90;;;;;;5075662;28;20202;-82
2023/12/15 07:17:30;;;;;;;32.17;14.30;;;5.10;99.90;;;;;;5078022;28;20199;-82
2023/12/15 07:19:57;;;;;;;28.93;14.47;;;5.10;99.90;;;;;;5075871;28;20234;-82
2023/12/15 07:22:24;;;;;;;25.70;13.07;;;5.10;99.90;;;;;;5071607;28;20565;-82
2023/12/15 07:24:51;;;;;;;28.83;13.50;;;5.10;99.90;;;;;;5076358;28;20289;-81
2023/12/15 07:27:17;;;;;;;27.13;13.00;;;5.10;99.90;;;;;;5076094;28;20756;-82
2023/12/15 07:29:44;;;;;;;28.10;15.00;;;5.10;99.90;;;;;;5076646;28;20207;-81
2023/12/15 07:32:13;;;;;;;27.80;14.03;;;5.10;99.90;;;;;;5073914;28;20204;-82
2023/12/15 07:34:39;;;;;;;29.07;14.80;;;5.20;99.90;;;;;;5071228;28;20577;-82
2023/12/15 07:37:06;;;;;;;26.73;13.70;;;5.20;99.90;;;;;;5076995;28;20248;-81
2023/12/15 07:39:33;;;;;;;24.33;13.50;;;5.20;99.90;;;;;;5077050;28;20231;-81
2023/12/15 07:42:00;;;;;;;28.80;14.73;;;5.20;99.90;;;;;;5066901;28;20230;-82
2023/12/15 07:44:27;;;;;;;25.80;12.53;;;5.20;99.90;;;;;;5069328;28;20210;-82
2023/12/15 07:46:54;;;;;;;27.33;13.57;;;5.10;99.90;;;;;;5070250;28;20645;-82
2023/12/15 07:49:23;;;;;;;27.03;13.27;;;5.10;99.90;;;;;;5065907;28;20237;-82
2023/12/15 07:51:50;;;;;;;26.20;12.90;;;5.10;99.90;;;;;;5066302;28;20751;-82
2023/12/15 07:54:18;;;;;;;27.77;14.40;;;5.20;99.90;;;;;;5067644;28;20233;-82
2023/12/15 07:56:45;;;;;;;27.17;13.57;;;5.10;99.90;;;;;;5064896;28;20699;-82
2023/12/15 07:59:12;;;;;;;25.67;12.77;;;5.20;99.90;;;;;;5063114;28;20199;-82
2023/12/15 08:01:39;;;;;;;23.03;12.53;;;5.20;99.90;;;;;;5066846;28;20249;-81
2023/12/15 08:04:06;;;;;;;28.10;13.90;;;5.20;99.90;;;;;;5068629;28;20206;-82
2023/12/15 08:06:37;;;;;;;24.30;12.63;;;5.20;99.90;;;;;;5072396;28;20455;-80
2023/12/15 08:09:04;;;;;;;25.00;13.37;;;5.30;99.90;;;;;;5073044;28;20630;-82
2023/12/15 08:11:32;;;;;;;26.57;14.80;;;5.40;99.90;;;;;;5074577;28;20708;-82
2023/12/15 08:13:59;;;;;;;27.30;14.50;;;5.40;99.90;;;;;;5070330;28;20990;-82
2023/12/15 08:16:26;;;;;;;28.90;14.13;;;5.40;99.90;;;;;;5075217;28;20581;-82
2023/12/15 08:18:53;;;;;;;28.80;15.73;;;5.40;99.90;;;;;;5076124;28;20289;-82
2023/12/15 08:21:19;;;;;;;28.53;15.50;;;5.40;99.90;;;;;;5076732;28;20214;-82
2023/12/15 08:23:47;;;;;;;30.47;16.70;;;5.40;99.90;;;;;;5077379;28;20198;-82
2023/12/15 08:26:21;;;;;;;31.37;16.43;;;5.50;99.90;;;;;;5075838;28;20294;-82
2023/12/15 08:28:48;;;;;;;31.93;16.80;;;5.50;99.90;;;;;;5074333;28;20244;-82
2023/12/15 08:31:16;;;;;;;36.63;17.63;;;5.50;99.90;;;;;;5073193;28;20503;-82
2023/12/15 08:33:43;;;;;;;36.97;18.77;;;5.60;99.90;;;;;;5076314;28;20583;-82
2023/12/15 08:36:11;;;;;;;32.67;16.83;;;5.60;99.90;;;;;;5075255;28;20645;-82
2023/12/15 08:38:38;;;;;;;34.60;19.13;;;5.60;99.90;;;;;;5071253;28;20221;-82
2023/12/15 08:41:07;;;;;;;37.40;17.93;;;5.60;99.90;;;;;;5069874;28;20282;-82
2023/12/15 08:43:33;;;;;;;33.93;18.17;;;5.60;99.90;;;;;;5061778;28;20214;-82
2023/12/15 08:46:00;;;;;;;37.70;19.30;;;5.80;99.90;;;;;;5061058;28;20207;-82
2023/12/15 08:48:27;;;;;;;39.53;18.83;;;5.60;99.90;;;;;;5063345;28;20262;-82
2023/12/15 08:50:54;;;;;;;36.57;18.90;;;5.70;99.90;;;;;;5062934;28;20227;-82
2023/12/15 08:53:21;;;;;;;35.73;19.63;;;5.70;99.90;;;;;;5070855;28;20205;-82
2023/12/15 08:55:48;;;;;;;34.00;17.80;;;5.70;99.90;;;;;;5063124;28;20561;-82
2023/12/15 08:58:17;;;;;;;31.67;16.77;;;5.70;99.90;;;;;;5071349;28;20206;-82
2023/12/15 09:00:43;;;;;;;35.13;17.87;;;5.80;99.90;;;;;;5069925;28;20226;-82
2023/12/15 09:03:10;;;;;;;33.30;18.60;;;5.80;99.90;;;;;;5069244;28;20224;-81
2023/12/15 09:05:37;;;;;;;33.90;17.57;;;5.90;99.90;;;;;;5069766;28;20194;-82
2023/12/15 09:08:04;;;;;;;30.43;16.43;;;5.90;99.90;;;;;;5069215;28;20264;-82
2023/12/15 09:10:35;;;;;;;32.50;16.77;;;5.90;99.90;;;;;;5071595;28;20308;-82
2023/12/15 09:13:03;;;;;;;35.63;16.77;;;5.90;99.90;;;;;;5072263;28;20198;-82
2023/12/15 09:15:31;;;;;;;33.00;16.50;;;6.10;99.90;;;;;;5072284;28;20252;-82
2023/12/15 09:17:58;;;;;;;34.00;16.70;;;6.10;99.90;;;;;;5072307;28;20201;-82
2023/12/15 09:20:25;;;;;;;30.63;15.63;;;6.20;99.90;;;;;;5072780;28;20217;-82
2023/12/15 09:22:54;;;;;;;31.10;16.07;;;6.20;99.90;;;;;;5072286;28;20221;-82
2023/12/15 09:25:21;;;;;;;34.80;17.50;;;6.30;99.90;;;;;;5074667;28;20577;-82
2023/12/15 09:27:48;;;;;;;33.47;16.77;;;6.40;99.90;;;;;;5074923;28;20198;-82
2023/12/15 09:30:15;;;;;;;30.07;16.47;;;6.50;99.90;;;;;;5073677;28;20218;-80
2023/12/15 09:32:43;;;;;;;32.77;16.60;;;6.60;99.90;;;;;;5071126;28;20195;-82
2023/12/15 09:35:10;;;;;;;34.93;17.17;;;6.70;99.90;;;;;;5069909;28;20209;-81
2023/12/15 09:37:37;;;;;;;32.67;16.87;;;6.70;99.90;;;;;;5071592;28;20267;-80
2023/12/15 09:40:04;;;;;;;31.60;16.80;;;6.70;99.90;;;;;;5072310;28;20226;-80
2023/12/15 09:42:31;;;;;;;31.87;16.10;;;6.80;99.90;;;;;;5055820;28;20309;-80
2023/12/15 09:44:58;;;;;;;31.33;16.00;;;6.80;99.90;;;;;;5056590;28;20206;-81
2023/12/15 09:47:26;;;;;;;31.70;16.17;;;6.90;99.90;;;;;;5057688;28;20294;-80
2023/12/15 09:49:55;;;;;;;29.97;15.47;;;6.90;99.90;;;;;;5057162;28;20687;-80
2023/12/15 09:52:25;;;;;;;28.10;14.83;;;6.90;99.90;;;;;;5058204;28;20203;-81
2023/12/15 09:54:52;;;;;;;28.13;13.93;;;7.00;99.90;;;;;;5064178;28;20263;-80
2023/12/15 09:57:19;;;;;;;30.67;17.20;;;7.00;99.90;;;;;;5064674;28;20208;-81
2023/12/15 09:59:46;;;;;;;27.20;14.80;;;7.00;99.90;;;;;;5061774;28;20209;-79
2023/12/15 10:02:12;;;;;;;27.47;14.67;;;7.00;99.90;;;;;;5067544;28;20222;-82
2023/12/15 10:04:39;;;;;;;29.97;14.80;;;7.20;99.90;;;;;;5061265;28;20202;-81
2023/12/15 10:07:08;;;;;;;32.30;16.20;;;7.30;99.90;;;;;;5061448;28;20199;-79
2023/12/15 10:09:38;;;;;;;32.20;16.20;;;7.30;99.90;;;;;;5065200;28;20228;-80
2023/12/15 10:12:08;;;;;;;31.37;16.47;;;7.30;99.90;;;;;;5062798;28;20195;-80
2023/12/15 10:14:36;;;;;;;29.93;15.07;;;7.40;99.90;;;;;;5064360;28;20201;-80
2023/12/15 10:17:04;;;;;;;33.63;16.90;;;7.50;99.90;;;;;;5063781;28;20256;-81
2023/12/15 10:19:30;;;;;;;33.27;16.47;;;7.70;99.90;;;;;;5069585;28;20205;-80
2023/12/15 10:21:57;;;;;;;31.53;16.50;;;7.70;99.90;;;;;;5067857;28;20226;-81
2023/12/15 10:24:26;;;;;;;31.67;16.63;;;7.70;99.90;;;;;;5075895;28;20210;-80
2023/12/15 10:26:52;;;;;;;32.23;15.90;;;7.70;99.90;;;;;;5074554;28;20578;-82
2023/12/15 10:29:18;;;;;;;29.67;15.23;;;7.70;99.90;;;;;;5071837;28;20207;-81
2023/12/15 10:31:45;;;;;;;29.67;15.30;;;7.50;99.90;;;;;;5074109;28;20684;-80
2023/12/15 10:34:14;;;;;;;30.90;15.63;;;7.50;99.90;;;;;;5074456;28;20200;-81
2023/12/15 10:36:44;;;;;;;32.07;15.87;;;7.60;99.90;;;;;;5069788;28;20198;-79
2023/12/15 10:39:13;;;;;;;35.80;14.77;;;7.60;99.90;;;;;;5074767;28;20203;-79
2023/12/15 10:41:42;;;;;;;27.27;14.63;;;7.60;99.90;;;;;;5059172;28;20306;-79
2023/12/15 10:44:10;;;;;;;30.27;14.93;;;7.60;99.90;;;;;;5058697;28;20234;-79
2023/12/15 10:46:40;;;;;;;29.23;15.00;;;7.60;99.90;;;;;;5058629;28;20658;-79
2023/12/15 10:49:09;;;;;;;31.47;15.03;;;7.60;99.90;;;;;;5057983;28;20285;-79
2023/12/15 10:51:38;;;;;;;30.97;14.37;;;7.60;99.90;;;;;;5070779;28;20860;-81
2023/12/15 10:54:06;;;;;;;30.00;15.80;;;7.60;99.90;;;;;;5064706;28;20199;-81
2023/12/15 10:56:34;;;;;;;30.20;16.23;;;7.60;99.90;;;;;;5059884;28;20210;-81
2023/12/15 10:59:02;;;;;;;37.20;20.80;;;7.70;99.90;;;;;;5060087;28;20207;-80
2023/12/15 11:01:30;;;;;;;31.17;17.00;;;7.70;99.90;;;;;;5068320;28;20636;-81
2023/12/15 11:03:57;;;;;;;28.90;15.70;;;7.70;99.90;;;;;;5061829;28;20206;-80
2023/12/15 11:06:27;;;;;;;29.53;14.73;;;7.90;99.90;;;;;;5064654;28;20209;-79
2023/12/15 11:09:00;;;;;;;29.57;14.97;;;7.80;99.90;;;;;;5063936;28;20210;-79
2023/12/15 11:11:29;;;;;;;28.83;14.23;;;7.90;99.90;;;;;;5065645;28;20233;-79
2023/12/15 11:14:01;;;;;;;29.60;14.17;;;7.80;99.90;;;;;;5065093;28;20640;-79
2023/12/15 11:16:31;;;;;;;33.63;15.70;;;7.80;99.90;;;;;;5066399;28;20293;-81
2023/12/15 11:18:59;;;;;;;27.33;13.73;;;7.80;99.90;;;;;;5065951;28;20221;-82
2023/12/15 11:21:26;;;;;;;29.10;15.77;;;7.80;99.90;;;;;;5070580;28;20227;-80
2023/12/15 11:23:58;;;;;;;32.13;16.37;;;7.80;1.00;;;;;;5068030;28;20226;-81
2023/12/15 11:26:30;;;;;;;29.07;14.40;;;7.80;99.90;;;;;;5068208;28;20211;-81
2023/12/15 11:29:02;;;;;;;30.20;15.67;;;7.80;99.90;;;;;;5070111;28;20566;-80
2023/12/15 11:31:33;;;;;;;30.60;14.90;;;7.80;99.90;;;;;;5072409;28;20248;-81
2023/12/15 11:34:00;;;;;;;29.17;14.23;;;7.80;99.90;;;;;;5071705;28;20204;-83
2023/12/15 11:36:28;;;;;;;30.23;15.60;;;7.70;1.00;;;;;;5070143;28;20199;-79
2023/12/15 11:38:55;;;;;;;33.03;15.60;;;7.70;90.80;;;;;;5074284;28;20190;-80
2023/12/15 11:41:22;;;;;;;38.43;18.40;;;7.80;98.30;;;;;;5072958;28;20222;-79
2023/12/15 11:43:50;;;;;;;47.87;24.20;;;7.70;1.00;;;;;;5075901;28;20236;-79
2023/12/15 11:46:17;;;;;;;46.67;20.87;;;7.80;99.90;;;;;;5059140;28;20203;-82
2023/12/15 11:48:45;;;;;;;29.70;14.83;;;7.70;99.90;;;;;;5057041;28;20205;-80
2023/12/15 11:51:14;;;;;;;34.83;15.73;;;7.70;61.30;;;;;;5063884;28;20236;-81
2023/12/15 11:53:45;;;;;;;27.77;14.63;;;7.70;50.20;;;;;;5056902;28;20248;-81
2023/12/15 11:56:12;;;;;;;31.97;16.27;;;7.80;1.00;;;;;;5072153;28;20198;-80
2023/12/15 11:58:39;;;;;;;29.50;15.00;;;7.80;22.10;;;;;;5068863;28;20202;-80
2023/12/15 12:01:08;;;;;;;38.97;16.03;;;7.80;1.00;;;;;;5071842;28;20719;-80
2023/12/15 12:03:35;;;;;;;29.83;14.53;;;7.90;1.00;;;;;;5063051;28;20226;-80
2023/12/15 12:06:08;;;;;;;31.77;16.77;;;7.90;1.00;;;;;;5063743;28;20661;-80
2023/12/15 12:08:35;;;;;;;26.37;13.77;;;7.90;1.00;;;;;;5071127;28;20340;-81
2023/12/15 12:11:04;;;;;;;29.63;14.13;;;7.90;1.00;;;;;;5063993;28;20225;-80
2023/12/15 12:13:33;;;;;;;29.93;14.43;;;7.90;1.00;;;;;;5070633;28;20206;-80
2023/12/15 12:16:00;;;;;;;29.27;14.37;;;8.00;1.00;;;;;;5064400;28;20194;-80
2023/12/15 12:18:27;;;;;;;29.83;13.13;;;8.00;1.00;;;;;;5066823;28;20203;-79
2023/12/15 12:20:55;;;;;;;32.23;14.17;;;8.20;1.00;;;;;;5069500;28;20218;-81
2023/12/15 12:23:27;;;;;;;25.83;13.60;;;8.10;1.00;;;;;;5071384;28;20600;-80
2023/12/15 12:25:55;;;;;;;31.70;13.43;;;8.10;1.00;;;;;;5071541;28;20660;-82
2023/12/15 12:28:22;;;;;;;26.17;12.43;;;8.10;1.00;;;;;;5069539;28;20576;-80
2023/12/15 12:30:49;;;;;;;25.80;13.37;;;8.00;1.00;;;;;;5074727;28;20232;-81
2023/12/15 12:33:18;;;;;;;29.83;13.50;;;8.00;1.00;;;;;;5070454;28;20198;-81
2023/12/15 12:35:46;;;;;;;29.67;13.67;;;8.00;1.00;;;;;;5075560;28;20202;-81
2023/12/15 12:38:12;;;;;;;29.87;13.40;;;8.20;1.00;;;;;;5076207;28;20288;-82